Terminal Aerodrome Forecast
Issued by NWS

Home | Current Version | Previous Version | Text Only | Print | Product List | Glossary On
Versions: 1 2 3 4 5 6 7 8 9 10 11 12 13 14 15 16 17 18 19 20 21 22 23 24 25
000
FTUS46 KOTX 172335
TAFSFF
TAF
KSFF 172335Z 1800/1824 06005KT P6SM SCT040 OVC060
      TEMPO 1800/1803 -FZRAPL OVC040
     FM180400 12003KT 4SM -FZRA BR OVC020
     FM181200 12005KT 6SM -RA BR BKN015 OVC025
     FM181500 12009KT 3SM -RA BR OVC012=

USA.gov is the U.S. government's official web portal to all federal, state and local government web resources and services.